Time;durP1;ratioP1;P1;durP2;ratioP2;P2;SDS_P1;SDS_P2;PMS_P1;PMS_P2;Temp;Humidity;BMP_temperature;BMP_pressure;BME280_temperature;BME280_humidity;BME280_pressure;Samples;Min_cycle;Max_cycle;Signal;HPM_P1;HPM_P2
2021/10/20 00:02:17;;;;;;;5.95;3.00;;;15.00;99.90;;;;;;5048777;28;20530;-63
2021/10/20 00:04:43;;;;;;;5.03;2.78;;;15.00;99.90;;;;;;5048590;28;20058;-62
2021/10/20 00:07:09;;;;;;;5.88;2.38;;;14.90;99.90;;;;;;5048976;28;20037;-62
2021/10/20 00:09:34;;;;;;;5.72;3.05;;;14.90;99.90;;;;;;5047386;28;20037;-62
2021/10/20 00:12:01;;;;;;;7.50;2.60;;;14.90;99.90;;;;;;5047821;28;20063;-62
2021/10/20 00:14:26;;;;;;;5.55;3.50;;;14.90;99.90;;;;;;5047615;28;20029;-62
2021/10/20 00:16:52;;;;;;;7.05;2.65;;;14.90;99.90;;;;;;5047122;28;20045;-61
2021/10/20 00:19:18;;;;;;;4.25;2.20;;;14.80;99.90;;;;;;5047641;28;20543;-63
2021/10/20 00:21:44;;;;;;;4.85;2.30;;;14.90;99.90;;;;;;5030009;28;20064;-61
2021/10/20 00:24:10;;;;;;;9.10;2.25;;;14.80;99.90;;;;;;5047990;28;20212;-62
2021/10/20 00:26:37;;;;;;;4.72;2.65;;;14.90;99.90;;;;;;5047687;28;20029;-62
2021/10/20 00:29:03;;;;;;;6.10;2.75;;;14.80;99.90;;;;;;5047746;28;20048;-63
2021/10/20 00:31:28;;;;;;;6.22;2.63;;;14.80;99.90;;;;;;5047694;28;20049;-62
2021/10/20 00:33:54;;;;;;;6.25;2.42;;;14.90;99.90;;;;;;5047547;28;20488;-61
2021/10/20 00:36:19;;;;;;;5.28;2.38;;;14.90;99.90;;;;;;5047894;28;20183;-62
2021/10/20 00:38:45;;;;;;;4.63;2.92;;;14.90;99.90;;;;;;5047509;28;20037;-63
2021/10/20 00:41:12;;;;;;;4.05;2.22;;;15.00;99.90;;;;;;5048233;28;20025;-62
2021/10/20 00:43:38;;;;;;;3.90;2.38;;;15.00;99.90;;;;;;5047007;28;24436;-61
2021/10/20 00:46:03;;;;;;;6.70;2.60;;;15.00;99.90;;;;;;5047929;28;20560;-61
2021/10/20 00:48:29;;;;;;;8.85;2.90;;;15.00;99.90;;;;;;5047561;28;20037;-62
2021/10/20 00:50:54;;;;;;;4.88;2.47;;;15.00;99.90;;;;;;5047631;28;20140;-62
2021/10/20 00:53:20;;;;;;;5.95;2.30;;;15.00;99.90;;;;;;5047308;28;20030;-63
2021/10/20 00:55:46;;;;;;;6.15;2.38;;;15.00;99.90;;;;;;5047815;28;20025;-61
2021/10/20 00:58:12;;;;;;;5.03;2.33;;;15.10;99.90;;;;;;5048042;28;20041;-62
2021/10/20 01:00:37;;;;;;;6.47;2.55;;;15.10;99.90;;;;;;5046806;28;20382;-61
2021/10/20 01:03:03;;;;;;;9.10;2.78;;;15.10;99.90;;;;;;5047820;28;20072;-62
2021/10/20 01:05:29;;;;;;;6.60;2.17;;;15.00;99.90;;;;;;5047298;28;20028;-61
2021/10/20 01:07:54;;;;;;;7.70;2.60;;;14.90;99.90;;;;;;5047543;28;20076;-63
2021/10/20 01:10:20;;;;;;;5.53;2.45;;;14.90;99.90;;;;;;5045611;28;20037;-63
2021/10/20 01:12:46;;;;;;;9.70;2.58;;;15.00;99.90;;;;;;5047146;28;20037;-61
2021/10/20 01:15:21;;;;;;;7.43;2.85;;;15.00;99.90;;;;;;5028963;28;20499;-62
2021/10/20 01:17:48;;;;;;;6.00;2.38;;;15.00;99.90;;;;;;5044210;28;20045;-61
2021/10/20 01:20:14;;;;;;;4.50;2.75;;;15.00;99.90;;;;;;5047497;28;20048;-62
2021/10/20 01:22:40;;;;;;;6.28;2.70;;;15.00;99.90;;;;;;5048581;28;20083;-62
2021/10/20 01:25:07;;;;;;;7.00;2.55;;;15.00;99.90;;;;;;5051156;28;20028;-61
2021/10/20 01:27:33;;;;;;;11.18;2.78;;;15.00;99.90;;;;;;5048515;28;20595;-62
2021/10/20 01:29:59;;;;;;;8.43;2.35;;;15.00;99.90;;;;;;5050427;28;20040;-63
2021/10/20 01:32:26;;;;;;;6.07;2.28;;;15.00;99.90;;;;;;5050702;28;20465;-61
2021/10/20 01:34:55;;;;;;;6.45;3.47;;;14.90;99.90;;;;;;5050893;28;20060;-60
2021/10/20 01:37:23;;;;;;;6.80;2.35;;;14.90;99.90;;;;;;5048181;28;20140;-61
2021/10/20 01:39:49;;;;;;;5.57;2.67;;;15.00;99.90;;;;;;5050197;28;20492;-63
2021/10/20 01:42:14;;;;;;;8.40;2.50;;;14.90;99.90;;;;;;5032354;28;20481;-64
2021/10/20 01:44:40;;;;;;;6.95;2.83;;;14.90;99.90;;;;;;5049621;28;20053;-63
2021/10/20 01:47:06;;;;;;;5.95;3.13;;;14.80;99.90;;;;;;5046955;28;20029;-61
2021/10/20 01:49:31;;;;;;;8.20;3.20;;;14.80;99.90;;;;;;5032678;28;20041;-61
2021/10/20 01:51:57;;;;;;;7.97;2.90;;;14.80;99.90;;;;;;5032909;28;20037;-62
2021/10/20 01:54:22;;;;;;;6.88;2.90;;;14.80;99.90;;;;;;5050258;28;20431;-62
2021/10/20 01:56:48;;;;;;;7.82;3.63;;;14.70;99.90;;;;;;5032354;28;20052;-63
2021/10/20 01:59:15;;;;;;;5.93;3.10;;;14.80;99.90;;;;;;5050689;28;20025;-63
2021/10/20 02:01:40;;;;;;;8.07;2.67;;;14.70;99.90;;;;;;5049962;28;20436;-63
2021/10/20 02:04:11;;;;;;;4.97;2.35;;;14.70;99.90;;;;;;5050705;28;20040;-65
2021/10/20 02:06:37;;;;;;;8.40;3.25;;;14.80;99.90;;;;;;5045781;28;20045;-64
2021/10/20 02:09:06;;;;;;;9.68;3.17;;;14.80;99.90;;;;;;5049792;28;20035;-62
2021/10/20 02:11:33;;;;;;;8.77;3.15;;;14.80;99.90;;;;;;5048742;28;20028;-63
2021/10/20 02:13:59;;;;;;;11.65;3.90;;;14.80;99.90;;;;;;5049782;28;20108;-63
2021/10/20 02:16:24;;;;;;;9.27;3.33;;;14.80;99.90;;;;;;5031487;28;20167;-66
2021/10/20 02:18:50;;;;;;;6.43;3.25;;;14.80;99.90;;;;;;5049533;28;20029;-63
2021/10/20 02:21:16;;;;;;;8.02;3.22;;;14.80;99.90;;;;;;5050501;28;20075;-63
2021/10/20 02:23:41;;;;;;;5.95;2.85;;;14.80;99.90;;;;;;5049101;28;20477;-62
2021/10/20 02:26:07;;;;;;;7.22;3.30;;;14.80;99.90;;;;;;5050093;28;20048;-64
2021/10/20 02:28:33;;;;;;;6.43;3.63;;;14.90;99.90;;;;;;5045445;28;20025;-65
2021/10/20 02:30:58;;;;;;;9.02;3.72;;;14.90;99.90;;;;;;5049750;28;20079;-63
2021/10/20 02:33:24;;;;;;;5.97;3.00;;;14.90;99.90;;;;;;5049391;28;20108;-63
2021/10/20 02:35:50;;;;;;;9.80;3.13;;;14.90;99.90;;;;;;5049272;28;20411;-63
2021/10/20 02:38:16;;;;;;;6.93;3.75;;;14.90;99.90;;;;;;5047813;28;20044;-62
2021/10/20 02:40:41;;;;;;;7.07;3.20;;;14.90;99.90;;;;;;5048568;28;20033;-65
2021/10/20 02:43:07;;;;;;;7.18;3.10;;;14.90;99.90;;;;;;5049844;28;20401;-63
2021/10/20 02:45:32;;;;;;;8.05;3.70;;;14.80;99.90;;;;;;5049216;28;20041;-65
2021/10/20 02:47:58;;;;;;;10.85;3.40;;;14.80;99.90;;;;;;5031338;28;20033;-63
2021/10/20 02:50:28;;;;;;;9.93;3.38;;;14.90;99.90;;;;;;5030913;28;20029;-64
2021/10/20 02:52:55;;;;;;;8.57;3.15;;;14.80;99.90;;;;;;5048984;28;20037;-63
2021/10/20 02:55:20;;;;;;;11.13;3.90;;;14.90;99.90;;;;;;5048916;28;20121;-65
2021/10/20 02:57:46;;;;;;;10.07;3.63;;;14.80;99.90;;;;;;5049029;28;20123;-62
2021/10/20 03:00:12;;;;;;;7.03;3.20;;;14.80;99.90;;;;;;5049310;28;20025;-63
2021/10/20 03:02:37;;;;;;;10.00;3.50;;;14.80;99.90;;;;;;5048229;28;20501;-67
2021/10/20 03:05:03;;;;;;;11.45;4.03;;;14.90;99.90;;;;;;5049177;28;20036;-64
2021/10/20 03:07:29;;;;;;;8.77;4.03;;;14.90;99.90;;;;;;5030344;28;20646;-65
2021/10/20 03:09:54;;;;;;;7.05;3.42;;;14.90;99.90;;;;;;5048198;28;20044;-63
2021/10/20 03:12:20;;;;;;;9.15;3.67;;;14.90;99.90;;;;;;5048613;28;20044;-65
2021/10/20 03:14:45;;;;;;;14.43;4.20;;;14.90;99.90;;;;;;5048845;28;20037;-65
2021/10/20 03:17:11;;;;;;;6.88;3.42;;;14.80;99.90;;;;;;5048818;28;20048;-62
2021/10/20 03:19:37;;;;;;;13.50;3.47;;;14.80;99.90;;;;;;5048165;28;20033;-66
2021/10/20 03:22:04;;;;;;;10.35;4.15;;;14.90;99.90;;;;;;5049023;28;20481;-62
2021/10/20 03:24:29;;;;;;;8.13;3.42;;;15.00;99.90;;;;;;5048571;28;20147;-64
2021/10/20 03:26:55;;;;;;;6.15;3.20;;;14.90;99.90;;;;;;5026932;28;20119;-63
2021/10/20 03:29:21;;;;;;;7.68;3.33;;;15.00;99.90;;;;;;5049489;28;20048;-64
2021/10/20 03:31:46;;;;;;;11.40;3.47;;;15.00;99.90;;;;;;5033002;28;20053;-63
2021/10/20 03:34:12;;;;;;;16.75;3.72;;;15.00;99.90;;;;;;5053111;28;20357;-63
2021/10/20 03:36:38;;;;;;;8.40;3.78;;;15.00;99.90;;;;;;5058886;28;20049;-64
2021/10/20 03:39:03;;;;;;;6.07;3.70;;;15.10;99.90;;;;;;5054302;28;20127;-62
2021/10/20 03:41:29;;;;;;;9.43;3.95;;;15.10;99.90;;;;;;5057968;28;20036;-61
2021/10/20 03:43:54;;;;;;;8.63;3.83;;;15.10;99.90;;;;;;5048628;28;20457;-63
2021/10/20 03:46:20;;;;;;;9.40;3.72;;;15.10;99.90;;;;;;5047670;28;20037;-66
2021/10/20 03:48:45;;;;;;;6.88;3.55;;;15.10;99.90;;;;;;5048022;28;20409;-64
2021/10/20 03:51:11;;;;;;;7.07;3.42;;;15.20;99.90;;;;;;5048345;28;20107;-63
2021/10/20 03:53:37;;;;;;;6.65;3.45;;;15.20;99.90;;;;;;5047469;28;20037;-69
2021/10/20 03:56:02;;;;;;;11.80;4.25;;;15.20;99.90;;;;;;5030591;28;20485;-63
2021/10/20 03:58:28;;;;;;;6.63;3.28;;;15.30;99.90;;;;;;5043380;28;20033;-64
2021/10/20 04:00:54;;;;;;;8.65;4.50;;;15.30;99.90;;;;;;5047914;28;20021;-63
2021/10/20 04:03:20;;;;;;;7.90;4.30;;;15.30;99.90;;;;;;5047787;28;20104;-65
2021/10/20 04:05:47;;;;;;;6.88;3.85;;;15.20;99.90;;;;;;5047739;28;20469;-63
2021/10/20 04:08:13;;;;;;;9.20;4.22;;;15.20;99.90;;;;;;5047843;28;20029;-64
2021/10/20 04:10:38;;;;;;;8.93;3.90;;;15.20;99.90;;;;;;5029690;28;20033;-63
2021/10/20 04:13:04;;;;;;;8.82;4.05;;;15.20;99.90;;;;;;5030454;28;20028;-63
2021/10/20 04:15:30;;;;;;;11.40;4.15;;;15.20;99.90;;;;;;5029613;28;20389;-63
2021/10/20 04:17:55;;;;;;;6.03;3.70;;;15.20;99.90;;;;;;5047752;28;20110;-63
2021/10/20 04:20:22;;;;;;;7.18;3.78;;;15.20;99.90;;;;;;5047742;28;20037;-62
2021/10/20 04:22:49;;;;;;;8.55;3.97;;;15.20;99.90;;;;;;5047487;28;20805;-63
2021/10/20 04:25:16;;;;;;;8.55;3.83;;;15.20;99.90;;;;;;5048505;28;20163;-63
2021/10/20 04:27:42;;;;;;;11.10;4.13;;;15.20;99.90;;;;;;5046872;28;20032;-62
2021/10/20 04:30:10;;;;;;;7.93;3.40;;;15.20;99.90;;;;;;5047761;28;20029;-61
2021/10/20 04:32:36;;;;;;;9.68;3.10;;;15.20;99.90;;;;;;5044608;28;20037;-63
2021/10/20 04:35:02;;;;;;;9.02;3.47;;;15.30;99.90;;;;;;5047351;28;20033;-63
2021/10/20 04:37:28;;;;;;;17.17;4.03;;;15.30;99.90;;;;;;5028426;28;20037;-64
2021/10/20 04:39:59;;;;;;;5.40;3.17;;;15.30;99.90;;;;;;5047233;28;20033;-63
2021/10/20 04:42:25;;;;;;;;;;;15.40;99.90;;;;;;5047560;28;20025;-62
2021/10/20 04:44:51;;;;;;;10.32;3.30;;;15.50;99.90;;;;;;5029095;28;20008;-63
2021/10/20 04:47:16;;;;;;;8.52;3.85;;;15.50;99.90;;;;;;5029426;28;20056;-63
2021/10/20 04:49:43;;;;;;;7.35;3.65;;;15.40;99.90;;;;;;5028116;28;20052;-64
2021/10/20 04:52:09;;;;;;;7.72;3.63;;;15.50;99.90;;;;;;5047263;28;20087;-62
2021/10/20 04:54:34;;;;;;;6.78;3.47;;;15.50;99.90;;;;;;5046407;28;20443;-62
2021/10/20 04:57:00;;;;;;;6.13;3.33;;;15.50;99.90;;;;;;5049338;28;20033;-65
2021/10/20 04:59:27;;;;;;;8.68;3.55;;;15.50;99.90;;;;;;5032690;28;20033;-64
2021/10/20 05:01:53;;;;;;;8.57;4.25;;;15.50;99.90;;;;;;5050874;28;20053;-64
2021/10/20 05:04:19;;;;;;;7.60;4.03;;;15.50;99.90;;;;;;5050223;28;21727;-62
2021/10/20 05:06:44;;;;;;;8.63;3.08;;;15.60;99.90;;;;;;5041664;28;20033;-61
2021/10/20 05:09:10;;;;;;;8.15;3.78;;;15.70;99.90;;;;;;5039216;28;20040;-62
2021/10/20 05:11:35;;;;;;;7.95;3.65;;;15.70;99.90;;;;;;5045570;28;20029;-65
2021/10/20 05:14:01;;;;;;;7.50;3.80;;;15.80;99.90;;;;;;5027884;28;20707;-64
2021/10/20 05:16:27;;;;;;;10.60;3.92;;;15.80;99.90;;;;;;5044661;28;20040;-63
2021/10/20 05:18:52;;;;;;;8.27;3.50;;;15.80;99.90;;;;;;5049890;28;20052;-65
2021/10/20 05:21:18;;;;;;;7.35;4.03;;;15.80;99.90;;;;;;5044816;28;20042;-64
2021/10/20 05:23:44;;;;;;;8.40;4.03;;;15.90;99.90;;;;;;5048625;28;20033;-61
2021/10/20 05:26:09;;;;;;;9.80;3.83;;;15.90;99.90;;;;;;5051419;28;20033;-64
2021/10/20 05:28:35;;;;;;;8.57;4.00;;;15.90;99.90;;;;;;5044709;28;20078;-63
2021/10/20 05:31:00;;;;;;;9.32;3.92;;;15.90;99.90;;;;;;5048812;28;20029;-64
2021/10/20 05:33:26;;;;;;;7.93;3.67;;;15.90;99.90;;;;;;5052264;28;20036;-63
2021/10/20 05:35:51;;;;;;;7.65;3.75;;;15.90;99.90;;;;;;5049087;28;21672;-63
2021/10/20 05:38:17;;;;;;;10.05;3.97;;;15.80;99.90;;;;;;5048999;28;20656;-62
2021/10/20 05:40:43;;;;;;;8.80;3.58;;;15.80;99.90;;;;;;5048529;28;20087;-64
2021/10/20 05:43:08;;;;;;;7.25;4.15;;;15.80;99.90;;;;;;5049347;28;20025;-63
2021/10/20 05:45:34;;;;;;;8.40;3.75;;;15.80;99.90;;;;;;5028002;28;20060;-64
2021/10/20 05:47:59;;;;;;;7.57;3.85;;;15.80;99.90;;;;;;5044420;28;20045;-64
2021/10/20 05:50:25;;;;;;;9.15;4.18;;;15.80;99.90;;;;;;5046439;28;20028;-62
2021/10/20 05:52:50;;;;;;;11.13;3.83;;;15.80;99.90;;;;;;5041626;28;20052;-63
2021/10/20 05:55:16;;;;;;;10.20;3.95;;;15.80;99.90;;;;;;5043827;28;20057;-63
2021/10/20 05:57:42;;;;;;;9.20;3.08;;;15.80;99.90;;;;;;5049879;28;20032;-62
2021/10/20 06:00:12;;;;;;;7.30;3.50;;;15.80;99.90;;;;;;5044874;28;20036;-64
2021/10/20 06:02:39;;;;;;;8.52;3.83;;;15.70;99.90;;;;;;5046971;28;20032;-64
2021/10/20 06:05:05;;;;;;;7.47;3.58;;;15.70;99.90;;;;;;5031518;28;20096;-62
2021/10/20 06:07:31;;;;;;;8.30;3.33;;;15.70;99.90;;;;;;5046846;28;20024;-64
2021/10/20 06:09:56;;;;;;;8.63;3.22;;;15.70;99.90;;;;;;5039929;28;20565;-61
2021/10/20 06:12:22;;;;;;;6.63;3.20;;;15.70;99.90;;;;;;5045796;28;20029;-63
2021/10/20 06:14:49;;;;;;;6.15;2.80;;;15.70;99.90;;;;;;5050162;28;20041;-62
2021/10/20 06:17:15;;;;;;;8.43;3.88;;;15.70;99.90;;;;;;5024418;28;20069;-62
2021/10/20 06:19:41;;;;;;;6.57;2.53;;;15.60;99.90;;;;;;5044392;28;20028;-62
2021/10/20 06:22:06;;;;;;;8.65;2.78;;;15.60;99.90;;;;;;5040714;28;20393;-63
2021/10/20 06:24:32;;;;;;;5.43;2.47;;;15.50;99.90;;;;;;5041201;28;20033;-63
2021/10/20 06:26:58;;;;;;;5.70;2.75;;;15.50;99.90;;;;;;5042477;28;20025;-62
2021/10/20 06:29:26;;;;;;;5.43;2.78;;;15.50;99.90;;;;;;5045294;28;20059;-63
2021/10/20 06:31:52;;;;;;;5.97;2.60;;;15.50;99.90;;;;;;5049612;28;20036;-64
2021/10/20 06:34:17;;;;;;;5.18;2.30;;;15.60;99.90;;;;;;5042254;28;20039;-62
2021/10/20 06:36:43;;;;;;;10.18;2.90;;;15.60;99.90;;;;;;5045494;28;20056;-64
2021/10/20 06:39:08;;;;;;;4.57;2.58;;;15.60;99.90;;;;;;5048090;28;20036;-63
2021/10/20 06:41:34;;;;;;;9.15;2.72;;;15.60;99.90;;;;;;5044708;28;20052;-61
2021/10/20 06:44:00;;;;;;;6.45;2.33;;;15.60;99.90;;;;;;5043890;28;20033;-61
2021/10/20 06:46:25;;;;;;;4.28;2.70;;;15.60;99.90;;;;;;5045020;28;20113;-62
2021/10/20 06:48:51;;;;;;;7.38;3.08;;;15.60;99.90;;;;;;5026925;28;20044;-63
2021/10/20 06:51:17;;;;;;;5.57;2.20;;;15.70;99.90;;;;;;5024832;28;20036;-63
2021/10/20 06:53:42;;;;;;;5.70;2.88;;;15.60;99.90;;;;;;5051703;28;20037;-65
2021/10/20 06:56:08;;;;;;;5.25;2.70;;;15.50;99.90;;;;;;5047106;28;20848;-64
2021/10/20 06:58:34;;;;;;;5.97;2.67;;;15.40;99.90;;;;;;5049054;28;20032;-63
2021/10/20 07:01:00;;;;;;;12.68;3.08;;;15.20;99.90;;;;;;5022905;28;20088;-63
2021/10/20 07:03:26;;;;;;;7.47;3.28;;;15.10;99.90;;;;;;5059323;28;20033;-65
2021/10/20 07:05:51;;;;;;;5.93;2.63;;;14.90;99.90;;;;;;5054946;28;20026;-62
2021/10/20 07:08:17;;;;;;;7.13;2.90;;;14.90;99.90;;;;;;5041322;28;20120;-63
2021/10/20 07:10:43;;;;;;;6.05;3.10;;;14.90;99.90;;;;;;5066374;28;21846;-63
2021/10/20 07:13:08;;;;;;;5.32;2.83;;;14.80;99.90;;;;;;5067425;28;20028;-62
2021/10/20 07:15:34;;;;;;;6.28;3.00;;;14.70;99.90;;;;;;5049940;28;20473;-63
2021/10/20 07:18:00;;;;;;;9.43;3.25;;;14.70;99.90;;;;;;5060447;28;20037;-62
2021/10/20 07:20:25;;;;;;;4.90;2.65;;;14.60;99.90;;;;;;5058994;28;20123;-63
2021/10/20 07:22:51;;;;;;;11.80;3.40;;;14.60;99.90;;;;;;5064629;28;20040;-62
2021/10/20 07:25:18;;;;;;;7.20;3.47;;;14.50;99.90;;;;;;5051406;28;20064;-63
2021/10/20 07:27:45;;;;;;;6.55;3.50;;;14.50;99.90;;;;;;5060701;28;20033;-62
2021/10/20 07:30:12;;;;;;;9.48;3.22;;;14.50;99.90;;;;;;5060695;28;20045;-62
2021/10/20 07:32:39;;;;;;;6.10;3.28;;;14.50;99.90;;;;;;5050605;28;20161;-64
2021/10/20 07:35:09;;;;;;;8.43;2.85;;;14.50;99.90;;;;;;5070915;28;20087;-62
2021/10/20 07:37:35;;;;;;;7.50;3.50;;;14.50;99.90;;;;;;5060275;28;20032;-62
2021/10/20 07:40:01;;;;;;;6.38;3.50;;;14.50;99.90;;;;;;5068341;28;20036;-62
2021/10/20 07:42:26;;;;;;;7.30;3.25;;;14.50;99.90;;;;;;5048520;28;20055;-63
2021/10/20 07:44:52;;;;;;;9.23;3.90;;;14.40;99.90;;;;;;5059067;28;20064;-62
2021/10/20 07:47:20;;;;;;;9.82;3.67;;;14.50;99.90;;;;;;5055426;28;20028;-63
2021/10/20 07:49:46;;;;;;;5.95;3.33;;;14.50;99.90;;;;;;5064394;28;20056;-63
2021/10/20 07:52:12;;;;;;;7.55;3.53;;;14.60;99.90;;;;;;5043664;28;20247;-62
2021/10/20 07:54:39;;;;;;;9.23;3.50;;;14.60;99.90;;;;;;5033644;28;20647;-62
2021/10/20 07:57:05;;;;;;;7.35;3.80;;;14.60;99.90;;;;;;5040156;28;20080;-62
2021/10/20 07:59:31;;;;;;;9.32;3.55;;;14.70;99.90;;;;;;5054546;28;20029;-61
2021/10/20 08:01:56;;;;;;;7.18;3.03;;;14.70;99.90;;;;;;5042045;28;20037;-62
2021/10/20 08:04:22;;;;;;;5.93;3.28;;;14.80;99.90;;;;;;5039504;28;20052;-62
2021/10/20 08:06:48;;;;;;;5.25;2.78;;;14.80;99.90;;;;;;5043536;28;20037;-62
2021/10/20 08:09:13;;;;;;;5.63;3.25;;;14.80;99.90;;;;;;5044069;28;20029;-62
2021/10/20 08:11:39;;;;;;;8.52;3.13;;;14.80;99.90;;;;;;5047844;28;20390;-63
2021/10/20 08:14:04;;;;;;;8.75;3.17;;;14.80;99.90;;;;;;5041656;28;20033;-61
2021/10/20 08:16:31;;;;;;;9.20;2.78;;;14.80;99.90;;;;;;5044166;28;20040;-62
2021/10/20 08:18:56;;;;;;;7.90;3.15;;;14.90;99.90;;;;;;5042767;28;20045;-62
2021/10/20 08:21:22;;;;;;;5.65;2.78;;;14.90;99.90;;;;;;5028263;28;20112;-62
2021/10/20 08:23:47;;;;;;;5.72;2.58;;;15.00;99.90;;;;;;5035165;28;20037;-62
2021/10/20 08:26:13;;;;;;;5.38;3.35;;;15.10;99.90;;;;;;5042736;28;20034;-62
2021/10/20 08:28:39;;;;;;;5.97;2.90;;;15.20;99.90;;;;;;5041748;28;20465;-62
2021/10/20 08:31:05;;;;;;;4.60;2.90;;;15.30;99.90;;;;;;5043942;28;20025;-63
2021/10/20 08:33:31;;;;;;;6.88;3.10;;;15.50;99.90;;;;;;5043453;28;20035;-61
2021/10/20 08:35:56;;;;;;;6.38;3.40;;;15.60;99.90;;;;;;5037076;28;20040;-61
2021/10/20 08:38:22;;;;;;;6.80;2.75;;;15.70;99.90;;;;;;5043282;28;20032;-62
2021/10/20 08:40:47;;;;;;;8.77;3.33;;;15.80;99.90;;;;;;5046042;28;20045;-62
2021/10/20 08:43:15;;;;;;;5.00;2.92;;;15.80;99.90;;;;;;5033117;28;20036;-61
2021/10/20 08:45:41;;;;;;;7.07;3.03;;;16.00;99.90;;;;;;5058470;28;20124;-63
2021/10/20 08:48:07;;;;;;;6.72;2.78;;;16.10;99.90;;;;;;5048983;28;20120;-61
2021/10/20 08:50:34;;;;;;;9.38;3.10;;;16.20;99.90;;;;;;5051892;28;20112;-62
2021/10/20 08:53:01;;;;;;;4.30;2.85;;;16.20;99.90;;;;;;5050563;28;20035;-61
2021/10/20 08:55:27;;;;;;;4.90;2.60;;;16.20;99.90;;;;;;5046231;28;20032;-62
2021/10/20 08:57:55;;;;;;;6.15;3.50;;;16.20;99.90;;;;;;5036667;28;20055;-62
2021/10/20 09:00:22;;;;;;;6.78;3.17;;;16.20;99.90;;;;;;5049689;28;20412;-62
2021/10/20 09:02:49;;;;;;;4.82;2.72;;;16.20;99.90;;;;;;5050535;28;20045;-62
2021/10/20 09:05:18;;;;;;;9.63;3.65;;;16.20;99.90;;;;;;5049276;28;20052;-62
2021/10/20 09:07:46;;;;;;;5.68;3.00;;;16.20;99.90;;;;;;5051908;28;20091;-62
2021/10/20 09:10:13;;;;;;;8.23;4.05;;;16.20;99.90;;;;;;5028678;28;20033;-62
2021/10/20 09:12:42;;;;;;;9.73;4.00;;;16.30;99.90;;;;;;5026166;28;20060;-63
2021/10/20 09:15:11;;;;;;;7.85;3.28;;;16.30;99.90;;;;;;5031143;28;20140;-61
2021/10/20 09:17:52;;;;;;;9.93;3.50;;;16.40;99.90;;;;;;5048563;28;20037;-62
2021/10/20 09:20:26;;;;;;;5.25;2.72;;;16.40;99.90;;;;;;5042424;28;20572;-61
2021/10/20 09:22:57;;;;;;;5.43;3.22;;;16.40;99.90;;;;;;5029935;28;20781;-61
2021/10/20 09:25:32;;;;;;;4.93;2.85;;;16.50;99.90;;;;;;5042587;28;20118;-62
2021/10/20 09:27:58;;;;;;;5.75;3.50;;;16.50;99.90;;;;;;5046786;28;20041;-62
2021/10/20 09:30:26;;;;;;;6.68;3.75;;;16.60;99.90;;;;;;5040034;28;20040;-62
2021/10/20 09:32:52;;;;;;;5.55;3.08;;;16.60;99.90;;;;;;5032314;28;20856;-62
2021/10/20 09:35:17;;;;;;;7.97;3.10;;;16.60;99.90;;;;;;5051231;28;20037;-61
2021/10/20 09:37:43;;;;;;;7.60;4.45;;;16.60;99.90;;;;;;5044207;28;20121;-62
2021/10/20 09:40:11;;;;;;;10.02;4.03;;;16.60;99.90;;;;;;5041946;28;20047;-61
2021/10/20 09:42:45;;;;;;;8.73;3.28;;;16.50;99.90;;;;;;5044307;28;20394;-61
2021/10/20 09:45:14;;;;;;;8.10;4.05;;;16.50;99.90;;;;;;5046994;28;20060;-63
2021/10/20 09:47:40;;;;;;;6.03;3.20;;;16.60;99.90;;;;;;5041793;28;20108;-63
2021/10/20 09:50:06;;;;;;;7.90;2.78;;;16.50;99.90;;;;;;5054127;28;20040;-61
2021/10/20 09:52:44;;;;;;;6.18;2.97;;;16.50;99.90;;;;;;5033254;28;20044;-61
2021/10/20 09:55:14;;;;;;;7.47;3.20;;;16.50;99.90;;;;;;5043747;28;20144;-61
2021/10/20 09:57:39;;;;;;;7.72;3.35;;;16.50;99.90;;;;;;5030281;28;20044;-62
2021/10/20 10:00:07;;;;;;;5.70;3.03;;;16.60;99.90;;;;;;5050194;28;20033;-64
2021/10/20 10:02:33;;;;;;;5.60;3.50;;;16.60;99.90;;;;;;5047377;28;20037;-61
2021/10/20 10:04:59;;;;;;;5.30;2.70;;;16.60;99.90;;;;;;5027901;28;20048;-61
2021/10/20 10:07:25;;;;;;;5.10;2.92;;;16.60;99.90;;;;;;5047491;28;20037;-61
2021/10/20 10:09:50;;;;;;;6.43;2.70;;;16.70;99.90;;;;;;5046135;28;20068;-61
2021/10/20 10:12:20;;;;;;;4.65;2.70;;;16.80;99.90;;;;;;5040746;28;20420;-61
2021/10/20 10:14:52;;;;;;;5.47;3.00;;;17.10;99.90;;;;;;5033314;28;20382;-61
2021/10/20 10:17:19;;;;;;;6.47;2.38;;;17.30;99.90;;;;;;5031955;28;20430;-61
2021/10/20 10:19:45;;;;;;;5.07;2.38;;;17.50;99.90;;;;;;5026678;28;20025;-62
2021/10/20 10:22:21;;;;;;;4.68;2.45;;;17.50;99.90;;;;;;5052461;28;20161;-61
2021/10/20 10:24:47;;;;;;;4.82;2.35;;;17.50;99.90;;;;;;5041033;28;20117;-62
2021/10/20 10:27:15;;;;;;;5.97;2.60;;;17.50;99.90;;;;;;5023939;28;20107;-61
2021/10/20 10:30:08;;;;;;;6.28;2.67;;;17.50;99.90;;;;;;5041114;28;20033;-61
2021/10/20 10:32:34;;;;;;;5.20;2.38;;;17.40;99.90;;;;;;5028755;28;20040;-61
2021/10/20 10:35:05;;;;;;;5.60;2.28;;;17.30;99.90;;;;;;5034034;28;20114;-61
2021/10/20 10:37:35;;;;;;;7.90;1.92;;;17.40;99.90;;;;;;5019040;28;20118;-62
2021/10/20 10:40:19;;;;;;;8.15;2.58;;;17.20;99.90;;;;;;5045462;28;20034;-62
2021/10/20 10:42:49;;;;;;;5.05;1.92;;;17.20;99.90;;;;;;5050052;28;20041;-62
2021/10/20 10:45:18;;;;;;;4.63;2.05;;;17.30;99.90;;;;;;5045157;28;20032;-62
2021/10/20 10:48:07;;;;;;;6.60;2.42;;;17.30;99.90;;;;;;5044952;28;20044;-62
2021/10/20 10:50:47;;;;;;;5.95;2.00;;;17.30;99.90;;;;;;5043802;28;20037;-62
2021/10/20 10:53:50;;;;;;;7.32;2.65;;;17.20;99.90;;;;;;5046446;28;20493;-62
2021/10/20 10:56:16;;;;;;;4.63;2.38;;;17.30;99.90;;;;;;5018475;28;20051;-61
2021/10/20 10:59:03;;;;;;;4.80;2.05;;;17.30;99.90;;;;;;5048042;28;20124;-62
2021/10/20 11:01:38;;;;;;;6.47;2.30;;;17.40;99.90;;;;;;5049140;28;20151;-61
2021/10/20 11:04:16;;;;;;;6.15;1.95;;;17.40;99.90;;;;;;5048842;28;20037;-61
2021/10/20 11:06:42;;;;;;;10.93;2.50;;;17.40;99.90;;;;;;5044968;28;20124;-61
2021/10/20 11:09:08;;;;;;;5.70;2.22;;;17.50;99.90;;;;;;5049043;28;20079;-61
2021/10/20 11:11:34;;;;;;;6.53;2.08;;;17.60;99.90;;;;;;5048702;28;20502;-62
2021/10/20 11:14:01;;;;;;;7.93;2.00;;;17.70;99.90;;;;;;5048024;28;20036;-61
2021/10/20 11:16:27;;;;;;;8.18;2.10;;;17.70;99.90;;;;;;5029429;28;20166;-62
2021/10/20 11:18:53;;;;;;;4.43;2.00;;;17.60;99.90;;;;;;5047899;28;20459;-61
2021/10/20 11:21:20;;;;;;;4.07;2.00;;;17.60;99.90;;;;;;5047807;28;20172;-61
2021/10/20 11:23:46;;;;;;;5.18;2.10;;;17.50;99.90;;;;;;5047635;28;20045;-61
2021/10/20 11:26:12;;;;;;;7.47;2.42;;;17.40;99.90;;;;;;5047900;28;20029;-62
2021/10/20 11:28:38;;;;;;;5.38;2.53;;;17.40;99.90;;;;;;5044695;28;20021;-62
2021/10/20 11:31:08;;;;;;;4.18;2.00;;;17.40;99.90;;;;;;5048288;28;20120;-61
2021/10/20 11:33:34;;;;;;;4.72;2.20;;;17.30;99.90;;;;;;5044558;28;20021;-61
2021/10/20 11:36:00;;;;;;;4.80;2.25;;;17.30;99.90;;;;;;5047988;28;20025;-61
2021/10/20 11:38:35;;;;;;;10.32;2.45;;;17.30;99.90;;;;;;5046497;28;20123;-61
2021/10/20 11:41:01;;;;;;;6.13;2.10;;;17.40;99.90;;;;;;5030030;28;20033;-61
2021/10/20 11:43:39;;;;;;;3.40;2.25;;;17.40;99.90;;;;;;5047267;28;20401;-61
2021/10/20 11:46:06;;;;;;;4.10;1.98;;;17.40;99.90;;;;;;5040224;28;20515;-63
2021/10/20 11:48:32;;;;;;;4.93;2.40;;;17.50;99.90;;;;;;5043163;28;20029;-63
2021/10/20 11:51:01;;;;;;;6.63;2.00;;;17.40;99.90;;;;;;5029590;28;20026;-63
2021/10/20 11:53:30;;;;;;;5.75;2.70;;;17.40;99.90;;;;;;5047839;28;20040;-64
2021/10/20 11:55:58;;;;;;;4.35;1.90;;;17.40;99.90;;;;;;5029873;28;20045;-63
2021/10/20 11:58:29;;;;;;;5.38;2.47;;;17.50;99.90;;;;;;5029526;28;20110;-63
2021/10/20 12:00:59;;;;;;;7.13;2.65;;;17.50;99.90;;;;;;5047234;28;20040;-61
2021/10/20 12:03:39;;;;;;;7.45;2.63;;;17.50;99.90;;;;;;5047645;28;20033;-62
2021/10/20 12:06:08;;;;;;;5.38;2.00;;;17.50;99.90;;;;;;5044020;28;20116;-61
2021/10/20 12:08:45;;;;;;;4.03;2.20;;;17.50;99.90;;;;;;5025936;28;20041;-62
2021/10/20 12:11:21;;;;;;;4.03;1.90;;;17.50;99.90;;;;;;5045257;28;20033;-62
2021/10/20 12:13:47;;;;;;;3.33;2.20;;;17.50;99.90;;;;;;5047486;28;20374;-62
2021/10/20 12:16:19;;;;;;;4.55;2.28;;;17.50;99.90;;;;;;5029825;28;20039;-61
2021/10/20 12:18:46;;;;;;;3.35;1.95;;;17.60;99.90;;;;;;5046665;28;20068;-62
2021/10/20 12:21:15;;;;;;;3.38;1.90;;;17.60;99.90;;;;;;5048104;28;20032;-61
2021/10/20 12:23:46;;;;;;;4.45;1.70;;;17.70;99.90;;;;;;5046744;28;20056;-61
2021/10/20 12:26:12;;;;;;;;;;;17.70;99.90;;;;;;5047489;28;20033;-61
2021/10/20 12:28:39;;;;;;;5.00;2.10;;;17.80;99.90;;;;;;5047217;28;19913;-61
2021/10/20 12:31:10;;;;;;;4.63;1.73;;;17.80;99.90;;;;;;5047870;28;20631;-62
2021/10/20 12:33:44;;;;;;;4.60;2.25;;;17.80;99.90;;;;;;5047104;28;20097;-63
2021/10/20 12:36:13;;;;;;;3.67;1.55;;;17.80;99.90;;;;;;5047408;28;20040;-62
2021/10/20 12:38:39;;;;;;;3.05;1.40;;;17.90;99.90;;;;;;5042425;28;20115;-64
2021/10/20 12:41:19;;;;;;;4.88;2.25;;;17.90;99.90;;;;;;5047765;28;20039;-62
2021/10/20 12:43:56;;;;;;;4.95;2.17;;;17.90;99.90;;;;;;5046289;28;20041;-62
2021/10/20 12:46:23;;;;;;;4.95;1.75;;;18.00;99.90;;;;;;5047344;28;20033;-68